Terminal Aerodrome Forecast
Issued by NWS Cleveland, OH

Home | Current Version | Previous Version | Text Only | Print | Product List | Glossary Off
Versions: 1 2 3 4 5 6 7 8 9 10 11 12 13 14

000
FTUS41 KCLE 191300 AAA
TAFTOL
TAF AMD
KTOL 191353Z 1914/2012 30012KT P6SM BKN035
      TEMPO 1914/1916 BKN030
     FM191600 29012KT P6SM OVC040
     FM192100 29010KT P6SM SKC
     FM200400 30005KT P6SM BKN250=

USA.gov is the U.S. government's official web portal to all federal, state and local government web resources and services.